Time;durP1;ratioP1;P1;durP2;ratioP2;P2;SDS_P1;SDS_P2;PMS_P1;PMS_P2;Temp;Humidity;BMP_temperature;BMP_pressure;BME280_temperature;BME280_humidity;BME280_pressure;Samples;Min_cycle;Max_cycle;Signal;HPM_P1;HPM_P2
2021/04/11 00:01:32;;;;;;;11.25;6.92;;;;;;;23.89;26.32;157423.69;1789562;80;21528;-70
2021/04/11 00:04:05;;;;;;;14.63;7.03;;;;;;;23.91;26.43;157428.94;1789616;80;21374;-70
2021/04/11 00:06:38;;;;;;;14.90;7.30;;;;;;;24.10;26.05;157479.36;1789607;80;21497;-69
2021/04/11 00:09:11;;;;;;;14.50;7.83;;;;;;;24.03;26.19;157460.77;1789589;80;22072;-69
2021/04/11 00:11:43;;;;;;;19.70;8.30;;;;;;;23.99;26.35;157450.19;1789622;80;21217;-69
2021/04/11 00:14:16;;;;;;;16.12;8.30;;;;;;;23.69;26.45;157369.25;1789624;80;21206;-69
2021/04/11 00:16:50;;;;;;;14.05;7.95;;;;;;;23.57;26.65;157336.08;1789557;80;21485;-69
2021/04/11 00:19:23;;;;;;;16.95;7.80;;;;;;;23.72;26.53;157377.22;1789599;80;22020;-69
2021/04/11 00:21:56;;;;;;;17.45;8.93;;;;;;;23.57;27.21;157336.08;1789571;80;22039;-69
2021/04/11 00:24:28;;;;;;;16.07;8.50;;;;;;;23.53;27.52;157326.81;1789612;80;21202;-69
2021/04/11 00:27:01;;;;;;;15.18;8.05;;;;;;;23.36;27.81;157281.78;1789606;80;21201;-69
2021/04/11 00:29:34;;;;;;;16.20;8.33;;;;;;;23.23;28.18;157245.95;1789595;80;22062;-69
2021/04/11 00:32:08;;;;;;;16.73;8.88;;;;;;;23.06;28.44;157200.94;1789725;80;21206;-69
2021/04/11 00:34:41;;;;;;;16.85;9.03;;;;;;;22.97;28.85;157178.34;1789534;80;21218;-69
2021/04/11 00:37:14;;;;;;;16.97;9.70;;;;;;;23.18;28.75;157234.03;1789613;80;21194;-69
2021/04/11 00:39:46;;;;;;;14.55;8.38;;;;;;;22.96;28.96;157175.69;1789527;80;21313;-69
2021/04/11 00:42:35;;;;;;;17.75;9.28;;;;;;;22.60;29.22;157077.66;1789619;80;21203;-69
2021/04/11 00:45:42;;;;;;;17.30;8.68;;;;;;;22.77;28.96;157122.70;1789609;80;21997;-69
2021/04/11 00:48:16;;;;;;;18.90;8.35;;;;;;;22.78;28.86;157125.36;1789650;80;22038;-69
2021/04/11 00:51:05;;;;;;;16.50;8.85;;;;;;;22.39;29.15;157022.03;1789607;80;21218;-69
2021/04/11 00:53:38;;;;;;;15.32;7.78;;;;;;;22.21;29.39;156974.33;1789584;80;21488;-69
2021/04/11 00:56:12;;;;;;;18.60;9.70;;;;;;;22.08;29.52;156941.19;1789600;80;21203;-69
2021/04/11 00:58:45;;;;;;;16.05;9.15;;;;;;;22.00;29.54;156918.69;1789613;80;21433;-69
2021/04/11 01:01:18;;;;;;;15.98;8.28;;;;;;;21.93;29.59;156900.16;1768105;80;21175;-69
2021/04/11 01:03:51;;;;;;;15.32;8.53;;;;;;;21.90;29.55;156892.22;1782340;80;21229;-69
2021/04/11 01:06:33;;;;;;;20.35;9.20;;;;;;;21.84;29.59;156877.66;1786899;80;21253;-69
2021/04/11 01:09:14;;;;;;;;;;;;;;;21.81;29.58;156867.09;1771889;79;21201;-69
2021/04/11 01:11:47;;;;;;;16.70;8.78;;;;;;;21.75;29.67;156851.19;1794573;79;20291;-69
2021/04/11 01:14:20;;;;;;;16.17;8.48;;;;;;;21.74;29.74;156848.53;1789621;80;21209;-69
2021/04/11 01:16:53;;;;;;;17.70;8.85;;;;;;;21.68;29.65;156832.67;1789529;80;21170;-69
2021/04/11 01:19:54;;;;;;;16.87;9.28;;;;;;;21.64;29.70;156822.06;1789607;80;21195;-69
2021/04/11 01:22:39;;;;;;;15.18;8.60;;;;;;;21.64;29.65;156822.06;1789624;80;21194;-69
2021/04/11 01:25:20;;;;;;;24.07;10.05;;;;;;;21.70;29.67;156839.28;1789660;80;21245;-69
2021/04/11 01:31:33;;;;;;;19.35;9.15;;;;;;;21.66;29.72;156828.67;1789521;80;21162;-69
2021/04/11 01:37:43;;;;;;;23.25;10.72;;;;;;;21.79;29.68;156861.78;1789536;80;21484;-70
2021/04/11 01:40:18;;;;;;;48.02;18.95;;;;;;;21.76;29.79;156855.13;1789539;80;21200;-70
2021/04/11 01:42:51;;;;;;;48.28;17.62;;;;;;;21.74;29.78;156848.53;1789579;80;21206;-70
2021/04/11 01:45:23;;;;;;;35.55;15.55;;;;;;;21.69;29.85;156836.63;1789538;80;21237;-70
2021/04/11 01:47:56;;;;;;;36.63;15.20;;;;;;;21.68;30.00;156833.97;1789613;80;21201;-70
2021/04/11 01:50:29;;;;;;;43.35;16.48;;;;;;;21.69;30.03;156836.63;1789555;80;22083;-70
2021/04/11 01:53:02;;;;;;;42.00;16.85;;;;;;;21.75;30.01;156852.53;1789501;80;21559;-70
2021/04/11 01:55:35;;;;;;;42.85;17.10;;;;;;;21.60;30.10;156811.47;1789589;80;21210;-70
2021/04/11 01:58:10;;;;;;;52.48;17.65;;;;;;;21.54;30.18;156796.84;1789512;80;21175;-70
2021/04/11 02:00:48;;;;;;;49.77;17.57;;;;;;;21.53;30.19;156794.20;1768158;80;21187;-70
2021/04/11 02:03:21;;;;;;;52.33;19.60;;;;;;;21.54;30.27;156795.56;1789572;80;21206;-70
2021/04/11 02:05:54;;;;;;;37.73;15.63;;;;;;;21.55;30.27;156799.50;1789580;80;21178;-69
2021/04/11 02:08:28;;;;;;;41.45;16.57;;;;;;;21.54;30.19;156795.56;1789520;80;21199;-70
2021/04/11 02:11:04;;;;;;;38.02;14.25;;;;;;;21.56;30.14;156802.20;1789475;79;21210;-70
2021/04/11 02:13:39;;;;;;;35.65;15.20;;;;;;;21.88;29.79;156886.91;1789589;80;21996;-70
2021/04/11 02:16:14;;;;;;;39.98;16.02;;;;;;;21.96;29.62;156909.42;1788828;80;21924;-69
2021/04/11 02:18:48;;;;;;;39.95;15.43;;;;;;;21.64;29.93;156823.42;1789678;80;21257;-70
2021/04/11 02:21:21;;;;;;;28.32;13.25;;;;;;;21.76;29.81;156855.13;1789714;80;21210;-70
2021/04/11 02:23:54;;;;;;;37.38;15.10;;;;;;;21.82;29.50;156871.05;1789659;80;21210;-70
2021/04/11 02:26:28;;;;;;;36.58;15.15;;;;;;;21.70;29.65;156839.28;1789621;80;21261;-69
2021/04/11 02:29:08;;;;;;;29.87;13.28;;;;;;;21.70;29.69;156837.97;1789110;80;21253;-69
2021/04/11 02:31:42;;;;;;;32.00;13.08;;;;;;;21.69;29.71;156836.63;1789891;80;21407;-69
2021/04/11 02:34:26;;;;;;;29.60;12.73;;;;;;;21.67;29.59;156831.33;1789281;80;22055;-69
2021/04/11 02:37:09;;;;;;;33.15;13.15;;;;;;;21.62;29.45;156816.77;1789717;80;21354;-70
2021/04/11 02:39:43;;;;;;;27.60;12.85;;;;;;;21.49;29.45;156783.66;1768239;80;21426;-70
2021/04/11 02:42:23;;;;;;;25.72;11.12;;;;;;;21.44;29.50;156769.09;1767710;80;21198;-70
2021/04/11 02:45:04;;;;;;;23.83;11.27;;;;;;;21.44;29.52;156770.39;1789820;80;22058;-70
2021/04/11 02:47:38;;;;;;;27.07;12.25;;;;;;;21.43;29.54;156767.73;1789890;80;22029;-69
2021/04/11 02:50:12;;;;;;;23.45;11.08;;;;;;;21.97;29.02;156910.78;1789635;80;21429;-70
2021/04/11 02:52:50;;;;;;;21.60;10.50;;;;;;;21.98;28.97;156913.42;1789661;80;21233;-70
2021/04/11 02:55:23;;;;;;;20.95;10.20;;;;;;;22.05;28.58;156931.94;1794414;79;22047;-70
2021/04/11 02:57:56;;;;;;;23.98;10.48;;;;;;;22.10;28.14;156946.50;1794919;80;22125;-70
2021/04/11 03:00:31;;;;;;;20.25;10.78;;;;;;;22.07;28.54;156937.25;1795092;80;22218;-70
2021/04/11 03:03:06;;;;;;;22.77;10.80;;;;;;;22.10;28.53;156946.50;1794967;80;21196;-70
2021/04/11 03:05:38;;;;;;;24.98;11.00;;;;;;;22.03;28.71;156926.62;1787084;80;21217;-70
2021/04/11 03:08:14;;;;;;;19.85;10.53;;;;;;;22.16;28.74;156962.38;1792890;80;21348;-70
2021/04/11 03:11:29;;;;;;;21.73;11.30;;;;;;;22.11;28.78;156947.81;1794980;80;21479;-70
2021/04/11 03:14:04;;;;;;;21.50;9.88;;;;;;;22.04;28.79;156930.64;1793298;79;21767;-70
2021/04/11 03:16:38;;;;;;;24.27;11.28;;;;;;;21.95;28.82;156906.77;1794904;79;21195;-70
2021/04/11 03:19:18;;;;;;;21.10;10.25;;;;;;;21.94;28.96;156902.81;1794952;80;21324;-70
2021/04/11 03:21:52;;;;;;;24.87;11.00;;;;;;;21.99;28.80;156917.37;1794863;80;21405;-70
2021/04/11 03:24:25;;;;;;;25.43;11.55;;;;;;;22.00;28.70;156920.03;1794968;80;22182;-70
2021/04/11 03:27:17;;;;;;;25.43;12.05;;;;;;;21.95;28.59;156905.47;1794941;80;22166;-70
2021/04/11 03:29:55;;;;;;;25.68;12.35;;;;;;;21.95;28.56;156905.47;1794954;80;21444;-70
2021/04/11 03:32:30;;;;;;;25.17;12.47;;;;;;;21.88;28.47;156886.91;1794512;79;22097;-70
2021/04/11 03:35:06;;;;;;;42.90;21.42;;;;;;;21.93;28.41;156900.16;1794906;80;21229;-70
2021/04/11 03:37:40;;;;;;;26.87;13.75;;;;;;;22.00;28.19;156918.69;1772921;80;21525;-70
2021/04/11 03:40:14;;;;;;;27.15;12.82;;;;;;;22.13;28.04;156953.11;1794920;80;22031;-70
2021/04/11 03:42:50;;;;;;;38.00;14.85;;;;;;;22.16;28.18;156962.38;1794981;80;22252;-70
2021/04/11 03:45:24;;;;;;;39.48;16.05;;;;;;;22.26;28.06;156988.89;1794989;80;22110;-70
2021/04/11 03:48:32;;;;;;;36.50;15.32;;;;;;;22.31;27.99;157000.81;1794947;80;21332;-70
2021/04/11 03:51:24;;;;;;;36.38;14.43;;;;;;;22.37;28.03;157016.72;1794910;80;21202;-70
2021/04/11 03:54:16;;;;;;;31.12;13.80;;;;;;;22.43;27.96;157033.94;1794868;80;22117;-70
2021/04/11 03:56:56;;;;;;;25.82;11.08;;;;;;;22.45;27.90;157037.95;1789592;79;22102;-70
2021/04/11 03:59:29;;;;;;;24.43;10.40;;;;;;;22.53;27.77;157060.42;1787770;80;22035;-69
2021/04/11 04:02:01;;;;;;;25.02;10.82;;;;;;;22.59;27.78;157076.34;1789626;80;21237;-70
2021/04/11 04:04:35;;;;;;;22.15;10.08;;;;;;;22.68;27.68;157098.88;1767695;80;21261;-70
2021/04/11 04:07:14;;;;;;;36.38;14.10;;;;;;;22.73;27.64;157112.09;1789061;80;21277;-70
2021/04/11 04:09:53;;;;;;;62.10;21.55;;;;;;;22.79;27.61;157129.31;1788995;80;21499;-70
2021/04/11 04:13:00;;;;;;;87.45;26.82;;;;;;;22.87;27.70;157151.84;1789194;80;21249;-70
2021/04/11 04:16:05;;;;;;;120.05;40.80;;;;;;;22.43;28.18;157032.64;1767554;80;21587;-71
2021/04/11 04:18:59;;;;;;;119.50;40.55;;;;;;;22.94;27.68;157169.08;1791374;80;22175;-71
2021/04/11 04:21:57;;;;;;;114.95;39.10;;;;;;;23.01;27.52;157188.95;1791511;80;21183;-75
2021/04/11 04:24:53;;;;;;;85.42;34.95;;;;;;;23.06;27.67;157202.23;1791362;80;22005;-73
2021/04/11 04:27:38;;;;;;;76.17;29.80;;;;;;;23.18;27.47;157232.73;1788331;80;21193;-83
2021/04/11 04:30:28;;;;;;;48.63;21.12;;;;;;;23.18;27.41;157232.73;1789616;80;21498;-71
2021/04/11 04:33:18;;;;;;;42.25;16.77;;;;;;;23.16;27.49;157227.42;1789415;80;21461;-71
2021/04/11 04:36:11;;;;;;;36.10;15.10;;;;;;;23.12;27.52;157216.81;1789566;80;21249;-71
2021/04/11 04:39:22;;;;;;;29.95;13.22;;;;;;;23.26;27.34;157253.92;1765094;80;21218;-71
2021/04/11 04:42:05;;;;;;;27.27;12.58;;;;;;;23.16;27.39;157228.73;1789591;80;22079;-71
2021/04/11 04:45:01;;;;;;;21.50;11.08;;;;;;;23.45;27.10;157305.63;1789622;80;21210;-71
2021/04/11 04:47:52;;;;;;;21.10;10.25;;;;;;;23.33;27.19;157272.47;1789581;80;21218;-70
2021/04/11 04:50:32;;;;;;;23.57;11.30;;;;;;;23.04;27.36;157196.88;1789749;80;21289;-72
2021/04/11 04:53:35;;;;;;;18.45;9.08;;;;;;;23.09;27.43;157208.84;1789672;80;22032;-71
2021/04/11 04:56:13;;;;;;;19.42;9.15;;;;;;;23.16;27.39;157228.73;1791454;80;22024;-71
2021/04/11 04:58:59;;;;;;;16.82;8.58;;;;;;;23.17;27.45;157230.08;1794873;80;21241;-71
2021/04/11 05:01:41;;;;;;;17.80;9.75;;;;;;;23.43;27.49;157299.00;1794901;80;22176;-71
2021/04/11 05:04:19;;;;;;;20.45;8.43;;;;;;;23.30;27.51;157265.84;1794878;80;21453;-71
2021/04/11 05:07:03;;;;;;;18.98;8.95;;;;;;;23.34;27.24;157276.47;1794912;80;21233;-71
2021/04/11 05:13:26;;;;;;;16.17;8.03;;;;;;;23.51;27.17;157320.20;1794846;80;21983;-71
2021/04/11 05:16:12;;;;;;;17.20;8.43;;;;;;;23.55;27.03;157332.13;1794949;80;21170;-71
2021/04/11 05:18:59;;;;;;;21.75;8.10;;;;;;;23.63;27.00;157353.31;1794793;79;21362;-72
2021/04/11 05:21:41;;;;;;;17.52;8.33;;;;;;;23.80;26.96;157398.47;1788839;80;21445;-72
2021/04/11 05:24:27;;;;;;;15.98;8.13;;;;;;;23.91;26.81;157427.64;1794904;80;21411;-72
2021/04/11 05:27:07;;;;;;;14.95;9.13;;;;;;;24.01;26.68;157454.16;1794853;80;22170;-72
2021/04/11 05:30:01;;;;;;;14.85;7.70;;;;;;;24.06;26.43;157467.44;1751266;79;22172;-71
2021/04/11 05:32:34;;;;;;;13.15;7.17;;;;;;;24.17;26.55;157496.61;1794889;80;21957;-72
2021/04/11 05:35:07;;;;;;;14.60;7.50;;;;;;;24.13;26.68;157487.28;1794825;80;21437;-76
2021/04/11 05:38:18;;;;;;;15.48;7.60;;;;;;;24.18;26.72;157500.56;1796763;80;21348;-72
2021/04/11 05:41:10;;;;;;;14.28;7.45;;;;;;;24.54;26.49;157594.78;1795041;80;21210;-71
2021/04/11 05:43:59;;;;;;;13.78;7.53;;;;;;;24.59;26.55;157609.42;1794744;80;21213;-71
2021/04/11 05:46:36;;;;;;;15.23;7.85;;;;;;;24.76;26.57;157655.86;1778000;79;21209;-70
2021/04/11 05:49:17;;;;;;;16.67;7.95;;;;;;;25.06;26.62;157734.09;1756809;81;21205;-72
2021/04/11 05:52:02;;;;;;;13.80;8.40;;;;;;;25.25;26.42;157784.63;1796898;80;21202;-76
2021/04/11 05:54:49;;;;;;;11.40;6.62;;;;;;;25.36;26.52;157815.13;1796725;79;21198;-86
2021/04/11 05:57:26;;;;;;;14.58;7.65;;;;;;;25.54;26.46;157862.94;1797205;79;22009;-71
2021/04/11 06:00:08;;;;;;;15.90;7.58;;;;;;;25.14;26.78;157756.73;1797541;79;21199;-74
2021/04/11 06:03:07;;;;;;;14.47;7.70;;;;;;;25.12;26.88;157750.11;1799299;79;21359;-81
2021/04/11 06:06:04;;;;;;;11.22;7.20;;;;;;;25.19;27.08;157768.67;1799403;79;21424;-78
2021/04/11 06:08:53;;;;;;;14.05;7.12;;;;;;;25.30;26.88;157799.22;1753984;79;21233;-79
2021/04/11 06:11:36;;;;;;;16.55;8.03;;;;;;;25.41;26.70;157828.42;1799365;79;22034;-81
2021/04/11 06:14:36;;;;;;;12.53;7.72;;;;;;;25.46;26.58;157841.72;1799330;79;21201;-75
2021/04/11 06:17:12;;;;;;;13.65;7.30;;;;;;;25.58;26.61;157873.53;1770156;79;21233;-72
2021/04/11 06:19:46;;;;;;;12.53;7.45;;;;;;;25.67;26.50;157898.78;1799193;79;21352;-77
2021/04/11 06:22:33;;;;;;;11.73;7.25;;;;;;;25.71;26.44;157908.06;1799322;79;21202;-77
2021/04/11 06:25:17;;;;;;;11.60;7.20;;;;;;;25.83;26.34;157941.34;1799288;79;21333;-77
2021/04/11 06:28:17;;;;;;;17.07;7.62;;;;;;;25.94;26.17;157969.20;1797957;79;21245;-79
2021/04/11 06:31:15;;;;;;;16.32;7.15;;;;;;;26.06;26.50;158001.08;1782549;79;21178;-80
2021/04/11 06:33:50;;;;;;;12.63;6.87;;;;;;;26.19;26.13;158036.98;1799403;79;21343;-81
2021/04/11 06:36:35;;;;;;;11.33;7.22;;;;;;;26.76;25.62;158188.50;1799104;79;21390;-71
2021/04/11 06:39:26;;;;;;;16.85;6.95;;;;;;;26.88;25.50;158220.39;1799194;79;21217;-72
2021/04/11 06:42:32;;;;;;;14.13;7.03;;;;;;;26.53;25.74;158127.37;1799631;79;21994;-72
2021/04/11 06:45:19;;;;;;;11.33;6.42;;;;;;;26.61;25.93;158149.97;1799325;79;21511;-77
2021/04/11 06:48:09;;;;;;;16.55;7.62;;;;;;;26.76;25.82;158189.80;1793475;79;21386;-74
2021/04/11 06:51:05;;;;;;;18.48;7.40;;;;;;;27.16;25.53;158294.84;1799226;79;21257;-76
2021/04/11 06:53:46;;;;;;;11.45;5.90;;;;;;;27.25;25.32;158320.12;1799424;79;21442;-75
2021/04/11 06:56:49;;;;;;;12.70;8.07;;;;;;;27.15;25.05;158293.53;1799530;79;21365;-74
2021/04/11 07:00:09;;;;;;;12.85;6.53;;;;;;;27.69;25.04;158437.17;1768915;79;21254;-77
2021/04/11 07:03:09;;;;;;;11.40;6.15;;;;;;;27.60;25.15;158414.50;1799513;79;21356;-76
2021/04/11 07:06:05;;;;;;;11.30;5.62;;;;;;;27.81;25.02;158470.45;1799299;79;21332;-77
2021/04/11 07:09:13;;;;;;;16.02;7.53;;;;;;;28.00;24.50;158520.97;1799218;79;21246;-76
2021/04/11 07:12:05;;;;;;;11.57;6.35;;;;;;;28.09;24.30;158544.91;1799269;79;21741;-77
2021/04/11 07:15:03;;;;;;;10.15;5.92;;;;;;;28.19;24.18;158570.20;1798519;79;21261;-82
2021/04/11 07:18:01;;;;;;;10.90;5.47;;;;;;;28.31;24.25;158603.50;1799103;79;21338;-82
2021/04/11 07:21:02;;;;;;;11.50;5.92;;;;;;;28.64;23.76;158692.66;1799230;79;21213;-86
2021/04/11 07:24:26;;;;;;;10.23;5.70;;;;;;;28.94;23.80;158772.56;1749898;79;21609;-73
2021/04/11 07:31:26;;;;;;;12.47;5.75;;;;;;;29.31;23.51;158871.08;1748884;82;21199;-73
2021/04/11 07:34:59;;;;;;;10.98;5.47;;;;;;;29.35;23.40;158883.06;1730875;79;22113;-71
2021/04/11 07:38:15;;;;;;;10.28;6.25;;;;;;;29.14;23.32;158824.48;1774379;81;21225;-73
2021/04/11 07:41:27;;;;;;;10.50;5.75;;;;;;;29.54;23.57;158933.75;1773955;81;21444;-72
2021/04/11 07:44:46;;;;;;;9.95;5.65;;;;;;;29.62;23.40;158955.05;1773951;81;21351;-72
2021/04/11 07:51:32;;;;;;;10.75;5.25;;;;;;;30.08;22.81;159077.64;1767521;81;21237;-71
2021/04/11 07:54:10;;;;;;;8.75;4.90;;;;;;;30.42;22.47;159169.61;1767811;81;21356;-73
2021/04/11 07:57:12;;;;;;;7.80;4.45;;;;;;;30.62;22.06;159222.95;1761724;81;21269;-67
2021/04/11 08:00:26;;;;;;;7.80;4.83;;;;;;;30.65;21.70;159229.59;1765766;81;21229;-69
2021/04/11 08:03:19;;;;;;;5.90;3.90;;;;;;;30.71;21.94;159246.92;1767615;81;21413;-69
2021/04/11 08:09:51;;;;;;;4.40;3.20;;;;;;;31.09;20.96;159346.94;1767480;79;21172;-70
2021/04/11 08:16:48;;;;;;;8.10;3.58;;;;;;;31.36;20.36;159420.33;1767687;81;21173;-68
2021/04/11 08:19:58;;;;;;;8.40;4.03;;;;;;;31.32;19.78;159409.64;1765786;81;21419;-67
2021/04/11 08:23:04;;;;;;;7.90;3.77;;;;;;;31.24;20.12;159388.33;1767766;81;22017;-71
2021/04/11 08:26:05;;;;;;;5.83;3.55;;;;;;;31.29;20.16;159401.63;1767588;81;21212;-70
2021/04/11 08:29:10;;;;;;;5.83;3.20;;;;;;;31.57;19.96;159476.37;1767701;81;21209;-69
2021/04/11 08:32:00;;;;;;;6.22;3.20;;;;;;;31.77;19.82;159529.72;1721854;81;21395;-73
2021/04/11 08:35:03;;;;;;;7.47;3.33;;;;;;;31.85;19.32;159551.05;1767604;81;21217;-71
2021/04/11 08:37:50;;;;;;;5.25;2.95;;;;;;;31.75;19.04;159525.73;1767594;81;21218;-71
2021/04/11 08:40:42;;;;;;;5.60;3.08;;;;;;;31.83;18.82;159545.75;1767573;81;21256;-71
2021/04/11 08:43:35;;;;;;;5.37;2.52;;;;;;;31.86;18.87;159555.08;1767600;81;21511;-71
2021/04/11 08:46:45;;;;;;;4.97;2.52;;;;;;;31.97;18.87;159583.06;1767685;81;21482;-71
2021/04/11 08:49:29;;;;;;;3.83;2.42;;;;;;;32.37;18.42;159691.19;1767734;81;21202;-71
2021/04/11 08:52:06;;;;;;;3.27;2.40;;;;;;;34.22;18.47;160189.52;1767714;81;21201;-72
2021/04/11 08:54:52;;;;;;;4.12;2.95;;;;;;;36.11;17.23;160697.78;1767739;81;21332;-73
2021/04/11 08:57:45;;;;;;;6.53;3.75;;;;;;;36.13;16.99;160703.16;1765453;81;21562;-71
2021/04/11 09:00:22;;;;;;;4.37;2.87;;;;;;;36.00;16.90;160667.05;1767623;81;21241;-73
2021/04/11 09:03:17;;;;;;;8.30;3.58;;;;;;;35.65;16.92;160572.03;1767684;81;21352;-81
2021/04/11 09:06:06;;;;;;;12.37;4.10;;;;;;;35.23;16.95;160460.98;1767661;81;21198;-76
2021/04/11 09:09:12;;;;;;;7.53;3.15;;;;;;;34.64;17.42;160301.81;1767735;81;21433;-76
2021/04/11 09:12:23;;;;;;;7.00;3.92;;;;;;;34.55;17.57;160276.34;1722864;81;21210;-74
2021/04/11 09:15:22;;;;;;;10.58;3.58;;;;;;;33.97;18.01;160121.28;1754495;80;21234;-77
2021/04/11 09:21:55;;;;;;;7.03;3.50;;;;;;;33.90;17.65;160101.30;1712807;83;21168;-69
2021/04/11 09:24:38;;;;;;;10.13;3.77;;;;;;;34.05;17.90;160141.34;1712829;83;21902;-72
2021/04/11 09:27:48;;;;;;;8.35;3.87;;;;;;;34.27;17.89;160201.55;1759417;81;21213;-73
2021/04/11 09:31:12;;;;;;;6.78;3.90;;;;;;;33.97;18.33;160119.97;1767876;81;21225;-73
2021/04/11 09:34:31;;;;;;;5.50;3.12;;;;;;;34.94;17.82;160382.05;1767630;81;21395;-70
2021/04/11 09:41:10;;;;;;;10.80;5.03;;;;;;;38.66;16.20;161383.70;1767723;81;21213;-71
2021/04/11 09:44:24;;;;;;;7.97;4.08;;;;;;;40.67;15.39;161925.72;1767774;81;21202;-71
2021/04/11 09:47:04;;;;;;;10.50;4.10;;;;;;;42.47;14.92;162412.05;1767742;81;21216;-71
2021/04/11 09:50:09;;;;;;;17.40;4.45;;;;;;;44.91;14.36;163071.05;1767680;81;21392;-70
2021/04/11 09:53:15;;;;;;;9.60;4.62;;;;;;;46.66;13.41;163545.11;1767732;81;21213;-74
2021/04/11 09:56:22;;;;;;;9.75;3.67;;;;;;;47.82;12.83;163860.48;1767707;81;21375;-72
2021/04/11 09:59:25;;;;;;;7.58;4.15;;;;;;;49.23;12.15;164240.83;1767644;81;21225;-72
2021/04/11 10:02:38;;;;;;;8.30;4.30;;;;;;;49.75;11.80;164381.22;1767615;81;21233;-72
2021/04/11 10:05:52;;;;;;;11.57;3.85;;;;;;;51.05;11.68;164734.92;1767766;81;21310;-70
2021/04/11 10:09:09;;;;;;;5.33;3.85;;;;;;;52.15;10.86;165034.83;1767713;81;21641;-71
2021/04/11 10:11:58;;;;;;;10.13;3.80;;;;;;;51.92;10.98;164971.33;1758068;80;21217;-71
2021/04/11 10:15:13;;;;;;;5.92;3.95;;;;;;;51.25;10.99;164790.33;1767743;80;21205;-71
2021/04/11 10:18:22;;;;;;;4.72;3.27;;;;;;;50.76;10.89;164656.61;1767575;81;21209;-72
2021/04/11 10:21:24;;;;;;;8.00;3.90;;;;;;;50.85;10.98;164682.27;1767670;81;21356;-73
2021/04/11 10:27:42;;;;;;;7.40;3.87;;;;;;;50.75;10.88;164653.91;1763284;81;21213;-72
2021/04/11 10:30:17;;;;;;;5.40;4.08;;;;;;;51.37;10.81;164822.72;1767676;81;21419;-77
2021/04/11 10:33:19;;;;;;;4.70;3.77;;;;;;;51.96;10.66;164983.53;1767513;81;21375;-74
2021/04/11 10:35:58;;;;;;;8.23;4.25;;;;;;;51.76;10.50;164928.11;1767739;81;21213;-74
2021/04/11 10:38:36;;;;;;;6.42;4.00;;;;;;;51.81;10.41;164941.58;1768120;81;21397;-76
2021/04/11 10:41:33;;;;;;;6.50;3.63;;;;;;;51.49;10.57;164855.13;1758455;81;21218;-74
2021/04/11 10:44:25;;;;;;;6.67;4.08;;;;;;;51.55;10.48;164870.03;1767798;81;22386;-74
2021/04/11 10:47:38;;;;;;;6.65;3.83;;;;;;;51.95;10.27;164979.45;1767716;81;21558;-72
2021/04/11 10:50:40;;;;;;;9.30;4.17;;;;;;;51.48;10.57;164851.09;1767808;81;21222;-73
2021/04/11 10:53:44;;;;;;;10.50;4.40;;;;;;;52.54;10.48;165138.92;1767864;81;21252;-71
2021/04/11 10:56:49;;;;;;;9.10;4.17;;;;;;;54.11;10.50;165567.55;1767706;81;21194;-72
2021/04/11 11:02:48;;;;;;;10.65;4.60;;;;;;;55.98;9.79;166076.34;1771695;81;21364;-71
2021/04/11 11:09:59;;;;;;;6.17;4.20;;;;;;;57.08;9.34;166375.63;1781016;79;21859;-75
2021/04/11 11:13:14;;;;;;;4.92;4.00;;;;;;;56.91;9.66;166329.53;1768438;80;22063;-75
2021/04/11 11:16:11;;;;;;;8.55;3.77;;;;;;;57.41;9.20;166463.69;1768796;81;21368;-76
2021/04/11 11:19:26;;;;;;;10.20;4.30;;;;;;;57.67;9.34;166534.09;1769591;81;21535;-76
2021/04/11 11:22:24;;;;;;;;;;;;;;;58.09;8.83;166650.62;1771737;81;22153;-76
2021/04/11 11:28:47;;;;;;;11.43;4.40;;;;;;;57.95;9.08;166612.70;1802671;79;21258;-77
2021/04/11 11:35:07;;;;;;;6.90;4.72;;;;;;;57.28;9.18;166428.42;1802546;79;21432;-77
2021/04/11 11:38:13;;;;;;;9.68;4.40;;;;;;;57.71;8.89;166544.94;1802331;79;21220;-73
2021/04/11 11:41:13;;;;;;;13.15;6.80;;;;;;;57.27;8.83;166425.72;1802325;79;21203;-72
2021/04/11 11:47:24;;;;;;;7.47;4.53;;;;;;;56.65;9.24;166257.75;1799579;79;21205;-74
2021/04/11 11:50:10;;;;;;;5.30;4.10;;;;;;;57.19;8.91;166405.41;1799550;79;21582;-73
2021/04/11 11:52:53;;;;;;;6.08;4.40;;;;;;;56.73;8.81;166279.39;1802136;79;21352;-74
2021/04/11 11:55:34;;;;;;;11.88;3.85;;;;;;;56.06;9.29;166096.66;1799516;79;21400;-71
2021/04/11 11:58:25;;;;;;;5.40;3.80;;;;;;;55.63;9.01;165978.89;1799640;79;21257;-74
2021/04/11 12:01:23;;;;;;;8.50;5.28;;;;;;;55.61;8.91;165973.47;1797773;79;22054;-70
2021/04/11 12:04:28;;;;;;;6.20;3.90;;;;;;;55.50;9.29;165943.66;1791364;79;21175;-71
2021/04/11 12:07:12;;;;;;;5.67;3.87;;;;;;;56.21;8.87;166138.64;1787021;80;21257;-71
2021/04/11 12:09:49;;;;;;;6.03;4.08;;;;;;;56.69;8.93;166268.61;1787028;80;21467;-71
2021/04/11 12:12:27;;;;;;;4.85;3.62;;;;;;;57.18;8.96;166401.36;1788849;80;21373;-73
2021/04/11 12:15:35;;;;;;;6.35;4.05;;;;;;;57.43;8.96;166470.44;1788819;80;22046;-73
2021/04/11 12:18:12;;;;;;;4.10;3.20;;;;;;;57.46;8.81;166477.19;1769491;80;21329;-76
2021/04/11 12:21:04;;;;;;;5.28;3.47;;;;;;;57.12;8.78;166385.09;1788979;80;21904;-78
2021/04/11 12:24:01;;;;;;;5.67;3.77;;;;;;;56.99;8.34;166349.84;1762975;80;21356;-79
2021/04/11 12:26:33;;;;;;;4.45;3.42;;;;;;;56.84;8.56;166309.22;1777304;80;21178;-76
2021/04/11 12:29:11;;;;;;;8.38;5.28;;;;;;;56.62;8.71;166248.30;1755624;81;21384;-79
2021/04/11 12:32:31;;;;;;;5.97;3.77;;;;;;;56.38;8.86;166183.28;1774970;81;21654;-80
2021/04/11 12:35:32;;;;;;;6.17;3.60;;;;;;;56.48;8.75;166211.78;1773220;81;21375;-77
2021/04/11 12:38:44;;;;;;;5.50;3.75;;;;;;;56.08;8.62;166102.06;1773156;81;21341;-72
2021/04/11 12:41:51;;;;;;;8.10;5.12;;;;;;;55.54;8.60;165955.83;1743184;81;21269;-73
2021/04/11 12:44:40;;;;;;;5.53;4.12;;;;;;;54.34;8.80;165629.72;1765378;81;21312;-76
2021/04/11 12:47:28;;;;;;;7.70;5.28;;;;;;;53.29;9.33;165343.03;1773197;81;21712;-76
2021/04/11 12:50:05;;;;;;;10.08;5.40;;;;;;;52.95;9.40;165251.11;1773025;81;21907;-77
2021/04/11 12:53:16;;;;;;;6.97;5.45;;;;;;;52.79;9.61;165209.19;1773356;81;21221;-73
2021/04/11 12:55:55;;;;;;;5.92;4.92;;;;;;;52.99;9.69;165263.25;1773365;81;21415;-74
2021/04/11 12:58:40;;;;;;;11.63;4.90;;;;;;;53.12;9.64;165297.06;1773071;81;21283;-75
2021/04/11 13:01:44;;;;;;;9.05;5.15;;;;;;;53.04;9.67;165276.80;1773087;81;21214;-77
2021/04/11 13:04:30;;;;;;;7.72;5.00;;;;;;;52.89;9.66;165234.92;1773185;81;21217;-74
2021/04/11 13:07:16;;;;;;;8.03;4.67;;;;;;;52.57;9.91;165148.38;1765946;81;21460;-81
2021/04/11 13:09:56;;;;;;;5.72;4.85;;;;;;;52.41;9.89;165103.75;1767977;81;22196;-80
2021/04/11 13:13:02;;;;;;;6.90;4.40;;;;;;;51.93;9.85;164975.42;1767832;81;22113;-77
2021/04/11 13:15:48;;;;;;;4.80;3.83;;;;;;;51.29;10.01;164801.14;1767911;80;21871;-79
2021/04/11 13:18:32;;;;;;;5.83;3.90;;;;;;;49.97;9.95;164443.33;1747927;81;21443;-75
2021/04/11 13:21:25;;;;;;;8.18;4.30;;;;;;;48.05;10.31;163922.52;1770399;81;21253;-76
2021/04/11 13:24:29;;;;;;;9.55;4.78;;;;;;;46.26;10.97;163435.98;1770233;81;21705;-76
2021/04/11 13:27:20;;;;;;;7.28;5.47;;;;;;;45.13;11.65;163130.34;1770340;81;21209;-74
2021/04/11 13:30:20;;;;;;;12.07;5.08;;;;;;;44.44;11.86;162944.61;1731911;81;21221;-74
2021/04/11 13:33:02;;;;;;;10.45;5.72;;;;;;;44.05;12.25;162838.27;1770715;81;21344;-75
2021/04/11 13:36:01;;;;;;;6.62;4.40;;;;;;;43.73;12.46;162750.86;1770490;81;21720;-77
2021/04/11 13:38:41;;;;;;;8.15;5.92;;;;;;;43.35;12.66;162648.63;1770387;81;21214;-74
2021/04/11 13:41:54;;;;;;;5.72;4.80;;;;;;;42.95;12.75;162541.05;1770331;81;21729;-72
2021/04/11 13:44:43;;;;;;;7.08;5.03;;;;;;;42.65;12.99;162460.39;1770395;81;21359;-76
2021/04/11 13:47:49;;;;;;;7.85;4.35;;;;;;;42.32;12.97;162371.69;1770364;81;21232;-73
2021/04/11 13:50:38;;;;;;;36.13;4.83;;;;;;;42.00;13.09;162284.38;1770433;81;21740;-78
2021/04/11 13:53:45;;;;;;;5.58;3.87;;;;;;;41.83;13.48;162237.31;1770402;81;21403;-75